Time;durP1;ratioP1;P1;durP2;ratioP2;P2;SDS_P1;SDS_P2;PMS_P1;PMS_P2;Temp;Humidity;BMP_temperature;BMP_pressure;BME280_temperature;BME280_humidity;BME280_pressure;Samples;Min_cycle;Max_cycle;Signal;HPM_P1;HPM_P2
2023/03/06 00:00:27;;;;;;;8.57;3.45;;;7.50;41.20;;;;;;5013502;28;20258;-55
2023/03/06 00:02:53;;;;;;;5.18;3.60;;;7.50;41.30;;;;;;5013363;28;20193;-53
2023/03/06 00:05:19;;;;;;;4.87;3.20;;;7.50;41.40;;;;;;5013274;28;20646;-52
2023/03/06 00:07:44;;;;;;;4.30;3.85;;;7.50;41.30;;;;;;5013402;28;20254;-54
2023/03/06 00:10:19;;;;;;;4.60;3.10;;;7.60;41.20;;;;;;5013250;28;20685;-55
2023/03/06 00:12:45;;;;;;;5.90;3.10;;;7.50;40.80;;;;;;5013198;28;20645;-51
2023/03/06 00:15:12;;;;;;;10.03;4.63;;;7.50;41.10;;;;;;5013038;28;20243;-56
2023/03/06 00:17:38;;;;;;;5.43;2.95;;;7.50;40.90;;;;;;5013079;28;20453;-53
2023/03/06 00:20:05;;;;;;;3.63;2.78;;;7.50;41.00;;;;;;5013076;28;20181;-54
2023/03/06 00:22:31;;;;;;;4.70;3.50;;;7.50;40.80;;;;;;5013081;28;20245;-52
2023/03/06 00:24:57;;;;;;;4.83;3.80;;;7.50;40.80;;;;;;5012782;28;20238;-54
2023/03/06 00:27:25;;;;;;;5.30;3.20;;;7.50;40.80;;;;;;5013004;28;20406;-53
2023/03/06 00:29:55;;;;;;;4.45;2.97;;;7.40;40.60;;;;;;5013164;28;20185;-51
2023/03/06 00:32:21;;;;;;;5.13;3.38;;;7.40;40.60;;;;;;5013069;28;20265;-55
2023/03/06 00:34:51;;;;;;;4.07;3.23;;;7.30;40.50;;;;;;5012558;28;20789;-53
2023/03/06 00:37:20;;;;;;;4.78;2.85;;;7.20;40.60;;;;;;5012714;28;20451;-55
2023/03/06 00:39:48;;;;;;;11.07;4.70;;;7.20;40.90;;;;;;5012714;28;20175;-53
2023/03/06 00:42:14;;;;;;;5.63;3.60;;;7.20;40.90;;;;;;5012950;28;20171;-55
2023/03/06 00:44:40;;;;;;;5.07;4.18;;;7.20;40.80;;;;;;5012399;28;20191;-52
2023/03/06 00:47:06;;;;;;;4.17;3.13;;;7.20;40.80;;;;;;5012632;28;20193;-55
2023/03/06 00:49:32;;;;;;;10.80;3.27;;;7.10;40.80;;;;;;5012602;28;20404;-53
2023/03/06 00:51:57;;;;;;;4.87;4.03;;;7.20;40.90;;;;;;5012592;28;20409;-54
2023/03/06 00:54:23;;;;;;;6.67;4.40;;;7.30;41.00;;;;;;5010970;28;20433;-55
2023/03/06 00:56:49;;;;;;;6.47;4.50;;;7.30;40.80;;;;;;5012515;28;20225;-53
2023/03/06 00:59:15;;;;;;;4.30;2.73;;;7.20;40.50;;;;;;5012668;28;20178;-50
2023/03/06 01:01:40;;;;;;;3.87;3.27;;;7.20;40.80;;;;;;5012514;28;20249;-53
2023/03/06 01:04:06;;;;;;;5.60;3.97;;;7.20;40.50;;;;;;5011726;28;20638;-52
2023/03/06 01:06:32;;;;;;;5.73;4.17;;;7.20;40.80;;;;;;5012366;28;20286;-57
2023/03/06 01:08:58;;;;;;;6.17;3.33;;;7.30;40.60;;;;;;5012393;28;20171;-53
2023/03/06 01:11:24;;;;;;;4.38;3.03;;;7.30;40.50;;;;;;5012634;28;20468;-53
2023/03/06 01:13:50;;;;;;;6.17;4.03;;;7.20;40.50;;;;;;5012096;28;20566;-54
2023/03/06 01:16:17;;;;;;;7.40;4.17;;;7.30;40.60;;;;;;5012382;28;20811;-54
2023/03/06 01:18:44;;;;;;;6.97;4.43;;;7.30;40.70;;;;;;5012505;28;20202;-51
2023/03/06 01:21:10;;;;;;;5.53;4.05;;;7.30;40.60;;;;;;5012219;28;20175;-54
2023/03/06 01:23:36;;;;;;;6.30;4.10;;;7.30;40.60;;;;;;5011990;28;20226;-55
2023/03/06 01:26:02;;;;;;;5.63;3.90;;;7.30;40.20;;;;;;5012361;28;20425;-53
2023/03/06 01:28:28;;;;;;;6.13;4.60;;;7.30;40.40;;;;;;5012265;28;20261;-53
2023/03/06 01:30:54;;;;;;;8.30;5.85;;;7.30;40.30;;;;;;5012463;28;20514;-56
2023/03/06 01:33:20;;;;;;;4.90;3.93;;;7.30;40.40;;;;;;5012100;28;20725;-51
2023/03/06 01:35:46;;;;;;;6.90;4.70;;;7.30;40.50;;;;;;5012144;28;20901;-54
2023/03/06 01:38:13;;;;;;;13.80;5.07;;;7.30;40.20;;;;;;5012067;28;20206;-51
2023/03/06 01:40:39;;;;;;;5.43;4.32;;;7.30;40.20;;;;;;5012175;28;20234;-52
2023/03/06 01:43:32;;;;;;;5.28;3.70;;;7.30;40.00;;;;;;5011881;28;20187;-54
2023/03/06 01:46:31;;;;;;;8.88;4.75;;;7.40;40.10;;;;;;5009629;28;20225;-52
2023/03/06 01:49:00;;;;;;;6.07;4.25;;;7.40;40.10;;;;;;5011062;28;20321;-54
2023/03/06 01:51:32;;;;;;;7.05;4.88;;;7.30;40.20;;;;;;5012031;28;20183;-52
2023/03/06 01:54:01;;;;;;;7.22;4.07;;;7.40;40.20;;;;;;5011666;28;20214;-53
2023/03/06 01:56:28;;;;;;;9.07;4.78;;;7.40;40.10;;;;;;5012078;28;20190;-52
2023/03/06 01:58:54;;;;;;;5.00;3.80;;;7.40;40.10;;;;;;5011821;28;20550;-51
2023/03/06 02:01:20;;;;;;;5.27;4.40;;;7.40;40.00;;;;;;5012053;28;20167;-53
2023/03/06 02:03:48;;;;;;;7.53;4.53;;;7.40;40.00;;;;;;5011552;28;20964;-54
2023/03/06 02:06:18;;;;;;;6.22;4.63;;;7.40;40.00;;;;;;5012158;28;20189;-54
2023/03/06 02:08:46;;;;;;;5.68;3.78;;;7.40;40.00;;;;;;5011826;28;20166;-53
2023/03/06 02:11:19;;;;;;;7.40;4.63;;;7.40;40.00;;;;;;5011915;28;20530;-51
2023/03/06 02:13:46;;;;;;;6.00;4.05;;;7.40;40.10;;;;;;5011567;28;20225;-54
2023/03/06 02:16:13;;;;;;;6.15;3.70;;;7.40;40.10;;;;;;5014647;28;20575;-54
2023/03/06 02:18:41;;;;;;;6.40;4.47;;;7.40;40.20;;;;;;5014105;28;20206;-55
2023/03/06 02:21:19;;;;;;;6.30;3.83;;;7.40;40.30;;;;;;5015276;28;20617;-52
2023/03/06 02:24:23;;;;;;;6.47;4.22;;;7.40;40.40;;;;;;5015503;28;20562;-53
2023/03/06 02:26:50;;;;;;;6.55;5.00;;;7.40;40.40;;;;;;5011808;28;20190;-52
2023/03/06 02:29:26;;;;;;;8.45;4.28;;;7.40;40.50;;;;;;5015198;28;20171;-54
2023/03/06 02:31:52;;;;;;;8.60;5.78;;;7.40;40.40;;;;;;5015461;28;20178;-51
2023/03/06 02:34:20;;;;;;;5.90;4.43;;;7.30;40.50;;;;;;5014695;28;20554;-52
2023/03/06 02:37:01;;;;;;;8.38;5.00;;;7.30;40.60;;;;;;5014981;28;20414;-53
2023/03/06 02:39:30;;;;;;;5.50;4.25;;;7.30;40.60;;;;;;5015248;28;20178;-52
2023/03/06 02:41:56;;;;;;;6.13;4.53;;;7.30;40.40;;;;;;5015046;28;20527;-51
2023/03/06 02:44:23;;;;;;;11.93;5.53;;;7.30;40.40;;;;;;5013488;28;20191;-55
2023/03/06 02:46:48;;;;;;;7.50;4.90;;;7.30;40.40;;;;;;5014792;28;20182;-52
2023/03/06 02:49:14;;;;;;;8.20;4.93;;;7.30;40.50;;;;;;5014967;28;20171;-51
2023/03/06 02:51:40;;;;;;;6.07;3.90;;;7.30;40.60;;;;;;5014921;28;20549;-54
2023/03/06 02:54:05;;;;;;;8.03;5.63;;;7.30;40.70;;;;;;5014749;28;20199;-55
2023/03/06 02:56:31;;;;;;;6.30;4.53;;;7.30;41.20;;;;;;5014656;28;20175;-53
2023/03/06 02:58:57;;;;;;;7.70;5.57;;;7.30;40.00;;;;;;5014593;28;20198;-53
2023/03/06 03:01:23;;;;;;;6.27;4.90;;;7.20;40.00;;;;;;5014527;28;20175;-55
2023/03/06 03:03:49;;;;;;;9.93;6.23;;;7.20;40.30;;;;;;5014327;28;20422;-52
2023/03/06 03:06:15;;;;;;;11.82;5.45;;;7.20;39.80;;;;;;5014697;28;20174;-52
2023/03/06 03:08:40;;;;;;;9.77;5.93;;;7.20;39.80;;;;;;5014484;28;20174;-55
2023/03/06 03:11:08;;;;;;;7.83;4.77;;;7.10;40.10;;;;;;5014396;28;20460;-55
2023/03/06 03:13:33;;;;;;;7.38;5.20;;;7.10;39.60;;;;;;5014072;28;20198;-54
2023/03/06 03:16:03;;;;;;;7.77;4.90;;;7.20;39.90;;;;;;5014239;28;20182;-52
2023/03/06 03:18:29;;;;;;;8.35;5.20;;;7.10;39.90;;;;;;5014215;28;20488;-54
2023/03/06 03:20:55;;;;;;;9.43;5.78;;;7.10;39.80;;;;;;5014424;28;20212;-52
2023/03/06 03:23:21;;;;;;;10.77;5.05;;;7.10;39.80;;;;;;5013923;28;20621;-52
2023/03/06 03:25:47;;;;;;;9.02;5.50;;;7.10;39.60;;;;;;5014052;28;20175;-52
2023/03/06 03:28:13;;;;;;;7.10;5.50;;;7.00;39.60;;;;;;5014153;28;20173;-54
2023/03/06 03:30:40;;;;;;;7.93;5.35;;;7.00;39.60;;;;;;5014246;28;20270;-52
2023/03/06 03:33:06;;;;;;;8.00;4.95;;;6.90;39.70;;;;;;5013775;28;20685;-52
2023/03/06 03:35:32;;;;;;;8.80;5.28;;;6.90;39.70;;;;;;5013975;28;20183;-56
2023/03/06 03:37:58;;;;;;;11.25;5.90;;;6.90;39.80;;;;;;5013897;28;20213;-54
2023/03/06 03:40:24;;;;;;;7.90;4.30;;;6.90;39.80;;;;;;5013908;28;20167;-52
2023/03/06 03:42:50;;;;;;;7.30;4.20;;;6.80;39.60;;;;;;5013655;28;20534;-54
2023/03/06 03:45:15;;;;;;;11.07;6.27;;;6.80;39.60;;;;;;5013889;28;20491;-52
2023/03/06 03:47:41;;;;;;;12.47;5.17;;;6.70;39.70;;;;;;5013916;28;20246;-54
2023/03/06 03:50:08;;;;;;;7.73;5.80;;;6.70;39.80;;;;;;5013744;28;20527;-53
2023/03/06 03:52:34;;;;;;;8.35;5.35;;;6.60;39.60;;;;;;5013603;28;20256;-50
2023/03/06 03:54:59;;;;;;;9.47;5.67;;;6.60;39.70;;;;;;5013408;28;20229;-55
2023/03/06 03:57:25;;;;;;;11.30;6.27;;;6.50;39.80;;;;;;5013477;28;20655;-53
2023/03/06 03:59:51;;;;;;;10.77;5.60;;;6.50;39.90;;;;;;5013482;28;20178;-55
2023/03/06 04:02:17;;;;;;;7.70;5.03;;;6.40;39.90;;;;;;5013463;28;20250;-54
2023/03/06 04:04:42;;;;;;;7.97;5.80;;;6.40;39.90;;;;;;5013058;28;20434;-52
2023/03/06 04:07:08;;;;;;;8.60;5.80;;;6.40;39.90;;;;;;5013542;28;20212;-54
2023/03/06 04:09:34;;;;;;;7.10;5.75;;;6.30;40.00;;;;;;5013393;28;20894;-51
2023/03/06 04:12:00;;;;;;;9.17;5.63;;;6.30;40.00;;;;;;5013375;28;20182;-52
2023/03/06 04:14:26;;;;;;;9.60;5.43;;;6.30;40.10;;;;;;5012804;28;20487;-54
2023/03/06 04:16:51;;;;;;;8.30;5.77;;;6.20;40.10;;;;;;5013220;28;20535;-53
2023/03/06 04:19:17;;;;;;;8.30;5.70;;;6.20;40.10;;;;;;5013204;28;20167;-53
2023/03/06 04:21:43;;;;;;;9.20;6.00;;;6.20;40.20;;;;;;5013298;28;20643;-54
2023/03/06 04:24:09;;;;;;;7.27;4.90;;;6.20;40.20;;;;;;5013139;28;20531;-54
2023/03/06 04:26:35;;;;;;;9.47;5.70;;;6.20;40.30;;;;;;5012993;28;20169;-51
2023/03/06 04:29:01;;;;;;;6.47;4.60;;;6.10;40.30;;;;;;5013400;28;20522;-51
2023/03/06 04:31:27;;;;;;;9.87;6.40;;;6.10;40.30;;;;;;5012986;28;20631;-54
2023/03/06 04:33:52;;;;;;;9.60;6.00;;;6.10;40.40;;;;;;5012594;28;20194;-52
2023/03/06 04:36:26;;;;;;;7.10;5.37;;;6.00;40.40;;;;;;5012924;28;20201;-51
2023/03/06 04:38:52;;;;;;;8.90;4.60;;;6.00;40.50;;;;;;5012418;28;20240;-53
2023/03/06 04:41:18;;;;;;;8.27;5.93;;;5.90;40.50;;;;;;5012766;28;20261;-53
2023/03/06 04:43:45;;;;;;;5.73;4.90;;;5.90;40.60;;;;;;5012408;28;20194;-50
2023/03/06 04:46:10;;;;;;;7.82;5.10;;;6.00;40.70;;;;;;5012774;28;20564;-55
2023/03/06 04:48:36;;;;;;;7.60;5.63;;;5.90;40.70;;;;;;5011481;28;20197;-54
2023/03/06 04:51:02;;;;;;;9.13;6.10;;;5.90;40.70;;;;;;5012810;28;20174;-51
2023/03/06 04:53:28;;;;;;;7.83;5.80;;;5.90;40.70;;;;;;5012358;28;20444;-54
2023/03/06 04:55:53;;;;;;;11.43;5.73;;;5.90;40.70;;;;;;5012570;28;20225;-51
2023/03/06 04:58:19;;;;;;;12.60;7.67;;;5.90;40.70;;;;;;5012426;28;20203;-53
2023/03/06 05:00:45;;;;;;;9.33;5.57;;;5.90;40.60;;;;;;5012740;28;20174;-54
2023/03/06 05:03:13;;;;;;;8.47;5.80;;;6.00;40.60;;;;;;5012211;28;20437;-54
2023/03/06 05:05:39;;;;;;;11.93;7.57;;;6.10;40.70;;;;;;5012504;28;20186;-52
2023/03/06 05:08:04;;;;;;;7.97;6.10;;;6.10;40.60;;;;;;5011163;28;20183;-54
2023/03/06 05:10:30;;;;;;;10.93;6.30;;;6.10;40.30;;;;;;5012296;28;20402;-51
2023/03/06 05:12:56;;;;;;;10.40;7.07;;;6.10;40.10;;;;;;5012039;28;20410;-53
2023/03/06 05:15:22;;;;;;;11.37;6.93;;;6.20;40.10;;;;;;5012368;28;20409;-52
2023/03/06 05:17:48;;;;;;;8.97;6.43;;;6.10;40.10;;;;;;5012261;28;20237;-52
2023/03/06 05:20:14;;;;;;;10.07;6.23;;;6.10;40.10;;;;;;5012326;28;20197;-55
2023/03/06 05:22:40;;;;;;;10.40;6.15;;;6.10;40.00;;;;;;5012138;28;20182;-57
2023/03/06 05:25:07;;;;;;;10.02;7.20;;;6.00;39.90;;;;;;4994398;28;20178;-51
2023/03/06 05:27:33;;;;;;;8.90;5.70;;;6.00;40.00;;;;;;5012158;28;20194;-56
2023/03/06 05:29:59;;;;;;;10.57;7.28;;;6.00;40.00;;;;;;5012277;28;20210;-52
2023/03/06 05:32:25;;;;;;;11.73;5.93;;;6.00;39.90;;;;;;5012162;28;20257;-54
2023/03/06 05:34:51;;;;;;;12.57;7.22;;;6.00;40.00;;;;;;5011882;28;20202;-55
2023/03/06 05:37:17;;;;;;;12.23;7.37;;;6.00;39.90;;;;;;5012121;28;20207;-52
2023/03/06 05:39:42;;;;;;;13.17;6.60;;;6.00;39.80;;;;;;5012119;28;20297;-54
2023/03/06 05:42:08;;;;;;;10.70;5.90;;;6.00;39.90;;;;;;5012019;28;20182;-54
2023/03/06 05:44:35;;;;;;;11.27;7.87;;;6.00;39.80;;;;;;5011941;28;20433;-52
2023/03/06 05:47:01;;;;;;;11.57;7.45;;;6.00;39.80;;;;;;5011935;28;20194;-56
2023/03/06 05:49:32;;;;;;;12.48;8.30;;;6.00;39.80;;;;;;5013822;28;20167;-56
2023/03/06 05:51:58;;;;;;;14.35;8.75;;;6.00;39.70;;;;;;5015938;28;20181;-52
2023/03/06 05:54:25;;;;;;;11.30;7.90;;;6.00;39.80;;;;;;5015799;28;20202;-53
2023/03/06 05:56:50;;;;;;;11.13;7.07;;;6.00;39.90;;;;;;5016044;28;20414;-54
2023/03/06 05:59:17;;;;;;;12.83;7.57;;;6.00;39.90;;;;;;5015675;28;20208;-52
2023/03/06 06:01:43;;;;;;;9.40;6.50;;;5.90;40.00;;;;;;5015663;28;20178;-54
2023/03/06 06:04:10;;;;;;;11.57;6.33;;;5.90;40.00;;;;;;5015382;28;20205;-53
2023/03/06 06:06:36;;;;;;;11.65;7.80;;;5.90;40.10;;;;;;5015669;28;20412;-52
2023/03/06 06:09:02;;;;;;;10.20;6.70;;;5.90;40.00;;;;;;5015589;28;20206;-55
2023/03/06 06:11:27;;;;;;;10.57;6.80;;;5.90;40.00;;;;;;5015533;28;20535;-53
2023/03/06 06:13:53;;;;;;;10.47;7.27;;;5.90;40.00;;;;;;5015134;28;20968;-56
2023/03/06 06:16:19;;;;;;;10.90;6.50;;;6.00;40.00;;;;;;5014158;28;20210;-52
2023/03/06 06:18:45;;;;;;;15.73;8.53;;;6.00;39.90;;;;;;5015339;28;20445;-53
2023/03/06 06:21:13;;;;;;;19.85;7.32;;;6.00;40.00;;;;;;5015331;28;20217;-57
2023/03/06 06:23:40;;;;;;;18.30;7.68;;;6.00;39.90;;;;;;5014973;28;20206;-56
2023/03/06 06:26:08;;;;;;;12.63;7.50;;;6.00;39.90;;;;;;5015270;28;20163;-53
2023/03/06 06:28:34;;;;;;;12.32;6.93;;;6.00;40.10;;;;;;5015152;28;20282;-55
2023/03/06 06:31:00;;;;;;;12.52;7.13;;;6.10;40.80;;;;;;5015446;28;20206;-56
2023/03/06 06:33:25;;;;;;;14.83;9.10;;;6.10;39.90;;;;;;5014903;28;20694;-52
2023/03/06 06:35:52;;;;;;;12.33;7.87;;;6.10;39.90;;;;;;5015037;28;20647;-54
2023/03/06 06:38:18;;;;;;;12.25;7.47;;;6.00;39.70;;;;;;5014956;28;20544;-56
2023/03/06 06:40:44;;;;;;;17.45;9.18;;;6.00;39.70;;;;;;5015001;28;20174;-52
2023/03/06 06:43:10;;;;;;;15.50;7.83;;;6.00;39.90;;;;;;5014783;28;20183;-52
2023/03/06 06:45:36;;;;;;;13.73;8.55;;;6.10;39.80;;;;;;5014787;28;20508;-53
2023/03/06 06:48:01;;;;;;;10.60;7.55;;;6.10;39.90;;;;;;5014931;28;20178;-52
2023/03/06 06:50:27;;;;;;;12.03;8.37;;;6.20;40.00;;;;;;5015146;28;20856;-56
2023/03/06 06:52:53;;;;;;;15.07;7.77;;;6.20;39.60;;;;;;5014759;28;20271;-56
2023/03/06 06:55:20;;;;;;;12.33;6.63;;;6.30;39.70;;;;;;5014740;28;20409;-53
2023/03/06 06:57:46;;;;;;;10.90;6.90;;;6.30;39.70;;;;;;5014823;28;20637;-52
2023/03/06 07:00:13;;;;;;;15.03;7.93;;;6.30;39.50;;;;;;5014278;28;20185;-55
2023/03/06 07:02:39;;;;;;;17.17;8.52;;;6.30;39.50;;;;;;5014737;28;20206;-53
2023/03/06 07:05:06;;;;;;;15.68;9.60;;;6.30;39.60;;;;;;5014311;28;20639;-52
2023/03/06 07:07:36;;;;;;;16.40;10.00;;;6.30;39.40;;;;;;5014758;28;20229;-54
2023/03/06 07:10:11;;;;;;;12.52;6.97;;;6.30;39.30;;;;;;5014451;28;20241;-55
2023/03/06 07:12:36;;;;;;;10.98;7.57;;;6.40;39.30;;;;;;5014667;28;20166;-55
2023/03/06 07:15:04;;;;;;;16.50;9.33;;;6.40;39.10;;;;;;5014525;28;20198;-56
2023/03/06 07:17:30;;;;;;;9.32;7.35;;;6.50;39.40;;;;;;5014004;28;20198;-51
2023/03/06 07:19:56;;;;;;;12.20;8.37;;;6.60;39.30;;;;;;5014534;28;20179;-52
2023/03/06 07:22:22;;;;;;;15.90;8.17;;;6.70;39.40;;;;;;5014476;28;20460;-55
2023/03/06 07:24:47;;;;;;;12.52;7.18;;;6.70;39.20;;;;;;5013807;28;20543;-54
2023/03/06 07:27:13;;;;;;;12.73;7.63;;;6.80;39.00;;;;;;5014157;28;20175;-53
2023/03/06 07:29:41;;;;;;;15.63;8.03;;;6.90;39.10;;;;;;5014080;28;20178;-57
2023/03/06 07:32:07;;;;;;;15.57;8.35;;;7.00;39.00;;;;;;5013915;28;20178;-52
2023/03/06 07:34:33;;;;;;;11.17;7.80;;;7.10;39.10;;;;;;5013635;28;20270;-52
2023/03/06 07:36:59;;;;;;;14.37;8.50;;;7.20;38.20;;;;;;5014029;28;20646;-54
2023/03/06 07:39:26;;;;;;;11.30;8.27;;;7.20;38.60;;;;;;5013823;28;20170;-52
2023/03/06 07:41:52;;;;;;;16.80;9.48;;;7.30;38.70;;;;;;5013846;28;20412;-53
2023/03/06 07:44:18;;;;;;;14.32;8.70;;;7.40;38.40;;;;;;5013491;28;20194;-52
2023/03/06 07:46:44;;;;;;;16.15;9.30;;;7.40;38.40;;;;;;5013630;28;20263;-55
2023/03/06 07:49:10;;;;;;;16.40;9.23;;;7.50;38.10;;;;;;5013980;28;20275;-52
2023/03/06 07:51:36;;;;;;;12.73;8.37;;;7.50;37.60;;;;;;5013881;28;20258;-55
2023/03/06 07:54:01;;;;;;;13.20;9.00;;;7.60;37.90;;;;;;5013466;28;20222;-52
2023/03/06 07:56:27;;;;;;;12.60;7.50;;;7.70;38.10;;;;;;5013585;28;20835;-51
2023/03/06 07:58:53;;;;;;;13.30;9.23;;;7.80;37.30;;;;;;5013482;28;20554;-57
2023/03/06 08:01:22;;;;;;;14.30;9.90;;;7.80;37.60;;;;;;5013409;28;20174;-58
2023/03/06 08:03:48;;;;;;;17.45;9.18;;;7.90;37.60;;;;;;5013128;28;20191;-52
2023/03/06 08:06:25;;;;;;;13.45;9.05;;;8.00;37.90;;;;;;5013358;28;20183;-53
2023/03/06 08:08:53;;;;;;;12.55;8.43;;;8.10;37.60;;;;;;5013284;28;20170;-55
2023/03/06 08:11:21;;;;;;;18.60;8.00;;;8.10;36.70;;;;;;5013263;28;20190;-53
2023/03/06 08:13:47;;;;;;;10.02;7.32;;;8.20;36.70;;;;;;5012959;28;20194;-54
2023/03/06 08:16:14;;;;;;;15.85;7.90;;;8.20;36.40;;;;;;5013258;28;20534;-55
2023/03/06 08:18:40;;;;;;;11.80;7.55;;;8.30;36.90;;;;;;5013217;28;20226;-51
2023/03/06 08:21:09;;;;;;;14.93;7.15;;;8.40;36.60;;;;;;5013149;28;20178;-56
2023/03/06 08:23:36;;;;;;;15.05;8.40;;;8.50;37.50;;;;;;5012823;28;20197;-57
2023/03/06 08:26:05;;;;;;;17.73;9.20;;;8.60;37.10;;;;;;5013040;28;20210;-51
2023/03/06 08:28:31;;;;;;;12.40;7.57;;;8.80;36.70;;;;;;5011627;28;20642;-59
2023/03/06 08:30:57;;;;;;;12.90;8.30;;;8.80;36.20;;;;;;5013092;28;20178;-53
2023/03/06 08:33:24;;;;;;;13.57;8.30;;;8.80;36.10;;;;;;5012620;28;20202;-53
2023/03/06 08:35:49;;;;;;;14.52;8.15;;;8.80;36.30;;;;;;5012914;28;20194;-53
2023/03/06 08:38:15;;;;;;;12.43;7.03;;;8.80;35.90;;;;;;5012799;28;20194;-52
2023/03/06 08:40:41;;;;;;;14.87;8.13;;;8.80;35.40;;;;;;5012875;28;20877;-55
2023/03/06 08:43:10;;;;;;;11.80;8.17;;;8.80;35.60;;;;;;5012406;28;20225;-51
2023/03/06 08:45:36;;;;;;;14.20;8.15;;;8.80;35.50;;;;;;5012713;28;20643;-52
2023/03/06 08:48:02;;;;;;;15.40;8.13;;;8.70;34.80;;;;;;5012719;28;20182;-54
2023/03/06 08:50:28;;;;;;;16.90;8.27;;;8.70;34.90;;;;;;5012687;28;20417;-58
2023/03/06 08:52:54;;;;;;;11.13;7.57;;;8.60;35.40;;;;;;5012380;28;20420;-52
2023/03/06 08:55:19;;;;;;;13.07;7.40;;;8.60;35.50;;;;;;5012832;28;20216;-57
2023/03/06 08:57:45;;;;;;;11.17;7.70;;;8.50;34.20;;;;;;5012823;28;20452;-54
2023/03/06 09:00:12;;;;;;;15.43;7.33;;;8.40;34.60;;;;;;5012602;28;20171;-53
2023/03/06 09:02:38;;;;;;;15.05;8.88;;;8.30;35.70;;;;;;5012446;28;20635;-51
2023/03/06 09:05:06;;;;;;;16.35;8.25;;;8.30;36.00;;;;;;5012185;28;20195;-53
2023/03/06 09:07:32;;;;;;;12.55;8.45;;;8.30;35.50;;;;;;5012411;28;20166;-53
2023/03/06 09:09:58;;;;;;;13.83;9.03;;;8.20;35.60;;;;;;5012669;28;20627;-52
2023/03/06 09:12:24;;;;;;;10.40;7.83;;;8.10;35.60;;;;;;5012523;28;20810;-53
2023/03/06 09:14:50;;;;;;;14.43;9.73;;;8.10;36.10;;;;;;5011958;28;20425;-59
2023/03/06 09:17:16;;;;;;;13.43;9.00;;;8.10;36.40;;;;;;5012223;28;20650;-59
2023/03/06 09:19:41;;;;;;;13.33;8.43;;;8.10;36.40;;;;;;5012309;28;20168;-52
2023/03/06 09:22:07;;;;;;;13.00;8.07;;;8.10;36.70;;;;;;5012360;28;20170;-52
2023/03/06 09:24:33;;;;;;;14.80;10.23;;;8.10;36.80;;;;;;5015980;28;20184;-58
2023/03/06 09:26:59;;;;;;;15.27;9.27;;;8.00;37.60;;;;;;5019050;28;20179;-53
2023/03/06 09:29:25;;;;;;;12.37;8.03;;;7.90;37.60;;;;;;5018974;28;20285;-53
2023/03/06 09:31:50;;;;;;;17.37;9.17;;;7.90;38.00;;;;;;5018709;28;20170;-58
2023/03/06 09:34:16;;;;;;;13.90;9.63;;;7.90;38.10;;;;;;5018800;28;20444;-53
2023/03/06 09:36:42;;;;;;;17.40;10.80;;;8.00;37.90;;;;;;5018658;28;20627;-53
2023/03/06 09:39:08;;;;;;;18.27;10.25;;;8.20;38.10;;;;;;5018744;28;20476;-55
2023/03/06 09:41:39;;;;;;;17.67;10.27;;;8.40;38.20;;;;;;5018897;28;20179;-52
2023/03/06 09:44:29;;;;;;;16.60;10.10;;;8.60;38.00;;;;;;5018674;28;20242;-53
2023/03/06 09:47:16;;;;;;;14.32;10.43;;;8.80;37.60;;;;;;5018644;28;20593;-51
2023/03/06 09:50:12;;;;;;;15.38;9.95;;;9.00;37.80;;;;;;5018599;28;20635;-52
2023/03/06 09:53:16;;;;;;;21.88;10.75;;;9.20;36.20;;;;;;5018472;28;20669;-52
2023/03/06 09:55:47;;;;;;;21.60;11.80;;;9.30;36.50;;;;;;5010240;28;20522;-57
2023/03/06 09:58:27;;;;;;;34.38;16.90;;;9.30;36.10;;;;;;5018640;28;20207;-53
2023/03/06 10:01:18;;;;;;;25.05;12.40;;;9.40;36.30;;;;;;5018475;28;20674;-56
2023/03/06 10:03:56;;;;;;;31.25;18.75;;;9.50;35.90;;;;;;5018231;28;20674;-53
2023/03/06 10:06:45;;;;;;;71.68;40.05;;;9.60;36.00;;;;;;5018295;28;20185;-56
2023/03/06 10:09:36;;;;;;;122.20;58.25;;;9.60;35.60;;;;;;5018513;28;20522;-52
2023/03/06 10:12:11;;;;;;;30.58;21.45;;;9.60;35.60;;;;;;5018443;28;20190;-54
2023/03/06 10:14:42;;;;;;;27.42;13.40;;;9.70;35.70;;;;;;5018053;28;20193;-54
2023/03/06 10:17:16;;;;;;;27.60;14.07;;;9.70;34.90;;;;;;5018212;28;20201;-51
2023/03/06 10:19:42;;;;;;;22.42;11.52;;;9.60;35.40;;;;;;5018352;28;20161;-54
2023/03/06 10:22:17;;;;;;;20.30;11.40;;;9.60;35.10;;;;;;5018301;28;20174;-53
2023/03/06 10:25:10;;;;;;;19.55;11.07;;;9.50;35.50;;;;;;5017948;28;20193;-54
2023/03/06 10:27:47;;;;;;;14.50;10.88;;;9.50;35.50;;;;;;5018474;28;20547;-57
2023/03/06 10:31:00;;;;;;;14.25;10.15;;;9.40;35.30;;;;;;5018760;28;20514;-52
2023/03/06 10:33:52;;;;;;;16.95;9.93;;;9.40;35.80;;;;;;5012902;28;20542;-55
2023/03/06 10:36:20;;;;;;;20.52;11.52;;;9.40;36.10;;;;;;5014739;28;20269;-58
2023/03/06 10:38:47;;;;;;;18.17;10.43;;;9.40;36.40;;;;;;5014995;28;20202;-56
2023/03/06 10:41:13;;;;;;;17.42;10.77;;;9.40;36.60;;;;;;5014949;28;20716;-52
2023/03/06 10:44:04;;;;;;;32.57;18.70;;;9.40;36.50;;;;;;5013438;28;20205;-57
2023/03/06 10:46:34;;;;;;;20.70;11.60;;;9.40;37.30;;;;;;5014683;28;20206;-52
2023/03/06 10:49:19;;;;;;;24.83;12.43;;;9.50;37.50;;;;;;5014973;28;20530;-52
2023/03/06 10:51:56;;;;;;;18.38;10.32;;;9.60;37.20;;;;;;5014875;28;20182;-51
2023/03/06 10:54:21;;;;;;;16.17;10.80;;;9.60;37.10;;;;;;5014589;28;20213;-51
2023/03/06 10:56:47;;;;;;;19.13;12.20;;;9.70;36.70;;;;;;5014821;28;20170;-52
2023/03/06 10:59:15;;;;;;;18.37;10.67;;;9.70;36.90;;;;;;5014627;28;20226;-53
2023/03/06 11:01:44;;;;;;;26.15;10.93;;;9.80;36.80;;;;;;5014582;28;20543;-53
2023/03/06 11:04:31;;;;;;;17.70;11.65;;;9.80;36.80;;;;;;5014606;28;20260;-56
2023/03/06 11:07:19;;;;;;;17.65;10.35;;;9.60;36.40;;;;;;5014566;28;20561;-53
2023/03/06 11:09:58;;;;;;;18.75;11.73;;;9.50;37.40;;;;;;5014722;28;20217;-52
2023/03/06 11:12:31;;;;;;;17.65;10.88;;;9.40;37.50;;;;;;5014588;28;20176;-55
2023/03/06 11:15:06;;;;;;;16.95;11.35;;;9.30;37.70;;;;;;5014391;28;20285;-52
2023/03/06 11:17:33;;;;;;;18.58;12.57;;;9.30;38.00;;;;;;5014252;28;20194;-55
2023/03/06 11:20:17;;;;;;;22.08;13.15;;;9.30;38.50;;;;;;5014308;28;20244;-54
2023/03/06 11:22:47;;;;;;;17.77;10.30;;;9.30;38.90;;;;;;5014111;28;20178;-57
2023/03/06 11:25:17;;;;;;;20.02;12.15;;;9.30;39.20;;;;;;5014165;28;20252;-56
2023/03/06 11:27:45;;;;;;;22.23;13.48;;;9.30;39.50;;;;;;5013947;28;20177;-57
2023/03/06 11:30:25;;;;;;;20.23;13.00;;;9.20;39.70;;;;;;5014115;28;20188;-55
2023/03/06 11:33:03;;;;;;;23.42;13.70;;;9.20;39.90;;;;;;5013958;28;20152;-51
2023/03/06 11:35:45;;;;;;;18.65;12.00;;;9.30;40.60;;;;;;5013973;28;20802;-52
2023/03/06 11:38:19;;;;;;;20.80;12.10;;;9.40;40.50;;;;;;5013912;28;20626;-51
2023/03/06 11:40:58;;;;;;;19.35;12.55;;;9.40;40.90;;;;;;5013952;28;20166;-53
2023/03/06 11:43:31;;;;;;;17.50;10.93;;;9.50;40.80;;;;;;5013840;28;20550;-52
2023/03/06 11:46:21;;;;;;;17.00;10.65;;;9.50;40.80;;;;;;5013778;28;20722;-54
2023/03/06 11:49:11;;;;;;;20.80;12.05;;;9.60;40.30;;;;;;5013832;28;20178;-53
2023/03/06 11:51:42;;;;;;;21.05;12.60;;;9.50;40.10;;;;;;5013843;28;20259;-56
2023/03/06 11:54:11;;;;;;;18.38;11.85;;;9.40;39.70;;;;;;5013785;28;20662;-53
2023/03/06 11:56:57;;;;;;;22.52;12.68;;;9.10;40.50;;;;;;5013524;28;20190;-55
2023/03/06 11:59:47;;;;;;;21.80;12.60;;;9.00;40.30;;;;;;5013476;28;20188;-53
2023/03/06 12:02:22;;;;;;;21.92;11.45;;;9.00;40.50;;;;;;5013611;28;20237;-56
2023/03/06 12:05:25;;;;;;;16.90;12.63;;;9.00;40.90;;;;;;5013109;28;20285;-52
2023/03/06 12:08:22;;;;;;;19.73;13.02;;;9.10;41.80;;;;;;5013469;28;20820;-56
2023/03/06 12:11:05;;;;;;;23.38;14.68;;;9.20;42.10;;;;;;5013305;28;20183;-53
2023/03/06 12:14:08;;;;;;;22.95;12.43;;;9.50;42.80;;;;;;5011742;28;20563;-58
2023/03/06 12:16:57;;;;;;;22.00;12.50;;;9.70;42.50;;;;;;5013238;28;20180;-53
2023/03/06 12:19:28;;;;;;;19.30;12.57;;;9.90;42.60;;;;;;5013110;28;20197;-54
2023/03/06 12:21:57;;;;;;;17.85;12.60;;;10.10;42.10;;;;;;5013124;28;20170;-56
2023/03/06 12:24:54;;;;;;;24.55;12.85;;;10.10;41.00;;;;;;5012840;28;20193;-53
2023/03/06 12:27:46;;;;;;;18.02;13.02;;;10.10;40.80;;;;;;5013064;28;20186;-56
2023/03/06 12:30:30;;;;;;;21.65;11.77;;;10.10;40.40;;;;;;5013051;28;20162;-51
2023/03/06 12:33:14;;;;;;;20.70;12.70;;;10.00;40.30;;;;;;5012746;28;20645;-56
2023/03/06 12:35:42;;;;;;;21.65;12.35;;;9.90;40.40;;;;;;5012913;28;20170;-53
2023/03/06 12:38:40;;;;;;;21.38;13.75;;;9.80;40.60;;;;;;5012839;28;20199;-55
2023/03/06 12:41:11;;;;;;;20.38;12.40;;;9.80;40.80;;;;;;5012876;28;20166;-57
2023/03/06 12:43:43;;;;;;;22.77;13.52;;;9.80;41.00;;;;;;5012683;28;20210;-52
2023/03/06 12:46:14;;;;;;;19.13;11.32;;;9.80;40.90;;;;;;5012712;28;20189;-57
2023/03/06 12:48:42;;;;;;;18.42;11.80;;;9.90;40.50;;;;;;5012660;28;20630;-58
2023/03/06 12:51:13;;;;;;;21.38;13.15;;;9.70;40.40;;;;;;5012545;28;20269;-54
2023/03/06 12:53:39;;;;;;;20.27;12.00;;;9.60;40.50;;;;;;5012574;28;20250;-57
2023/03/06 12:56:06;;;;;;;22.30;13.73;;;9.60;41.20;;;;;;5012646;28;20267;-51
2023/03/06 12:58:55;;;;;;;20.63;13.25;;;9.70;41.10;;;;;;5011872;28;20562;-55
2023/03/06 13:01:55;;;;;;;15.68;11.68;;;9.70;41.20;;;;;;5012453;28;20640;-51